sensor_id;sensor_type;location;lat;lon;timestamp;P1;durP1;ratioP1;P2;durP2;ratioP2
48487;SDS011;34289;48.572;13.378;2023-07-02T00:02:19;4.07;;;1.65;;
48487;SDS011;34289;48.572;13.378;2023-07-02T00:04:46;4.22;;;1.48;;
48487;SDS011;34289;48.572;13.378;2023-07-02T00:07:11;2.65;;;1.35;;
48487;SDS011;34289;48.572;13.378;2023-07-02T00:09:37;2.00;;;1.27;;
48487;SDS011;34289;48.572;13.378;2023-07-02T00:12:03;4.90;;;1.73;;
48487;SDS011;34289;48.572;13.378;2023-07-02T00:14:29;1.95;;;1.20;;
48487;SDS011;34289;48.572;13.378;2023-07-02T00:16:54;3.22;;;1.20;;
48487;SDS011;34289;48.572;13.378;2023-07-02T00:19:20;2.55;;;1.20;;
48487;SDS011;34289;48.572;13.378;2023-07-02T00:21:45;4.85;;;1.83;;
48487;SDS011;34289;48.572;13.378;2023-07-02T00:24:11;1.73;;;1.35;;
48487;SDS011;34289;48.572;13.378;2023-07-02T00:26:37;2.22;;;1.73;;
48487;SDS011;34289;48.572;13.378;2023-07-02T00:29:05;2.88;;;1.40;;
48487;SDS011;34289;48.572;13.378;2023-07-02T00:31:31;3.47;;;1.60;;
48487;SDS011;34289;48.572;13.378;2023-07-02T00:33:57;1.80;;;1.45;;
48487;SDS011;34289;48.572;13.378;2023-07-02T00:36:22;2.72;;;1.33;;
48487;SDS011;34289;48.572;13.378;2023-07-02T00:38:48;3.20;;;1.55;;
48487;SDS011;34289;48.572;13.378;2023-07-02T00:41:14;3.53;;;1.33;;
48487;SDS011;34289;48.572;13.378;2023-07-02T00:43:40;5.05;;;1.83;;
48487;SDS011;34289;48.572;13.378;2023-07-02T00:46:16;2.30;;;1.58;;
48487;SDS011;34289;48.572;13.378;2023-07-02T00:48:43;4.63;;;1.80;;
48487;SDS011;34289;48.572;13.378;2023-07-02T00:51:10;2.00;;;1.70;;
48487;SDS011;34289;48.572;13.378;2023-07-02T00:53:39;7.00;;;1.70;;
48487;SDS011;34289;48.572;13.378;2023-07-02T00:56:05;2.45;;;1.58;;
48487;SDS011;34289;48.572;13.378;2023-07-02T00:58:30;4.32;;;2.65;;
48487;SDS011;34289;48.572;13.378;2023-07-02T01:00:58;3.35;;;1.85;;
48487;SDS011;34289;48.572;13.378;2023-07-02T01:03:24;3.03;;;1.80;;
48487;SDS011;34289;48.572;13.378;2023-07-02T01:05:49;2.35;;;1.85;;
48487;SDS011;34289;48.572;13.378;2023-07-02T01:08:15;3.67;;;1.88;;
48487;SDS011;34289;48.572;13.378;2023-07-02T01:10:41;2.03;;;1.40;;
48487;SDS011;34289;48.572;13.378;2023-07-02T01:13:12;3.08;;;1.70;;
48487;SDS011;34289;48.572;13.378;2023-07-02T01:15:41;6.50;;;2.03;;
48487;SDS011;34289;48.572;13.378;2023-07-02T01:18:08;2.47;;;1.83;;
48487;SDS011;34289;48.572;13.378;2023-07-02T01:20:35;9.40;;;2.28;;
48487;SDS011;34289;48.572;13.378;2023-07-02T01:23:02;2.28;;;1.63;;
48487;SDS011;34289;48.572;13.378;2023-07-02T01:25:29;3.15;;;1.70;;
48487;SDS011;34289;48.572;13.378;2023-07-02T01:27:54;3.55;;;1.83;;
48487;SDS011;34289;48.572;13.378;2023-07-02T01:30:21;3.70;;;1.73;;
48487;SDS011;34289;48.572;13.378;2023-07-02T01:32:47;6.78;;;2.17;;
48487;SDS011;34289;48.572;13.378;2023-07-02T01:35:12;4.32;;;1.95;;
48487;SDS011;34289;48.572;13.378;2023-07-02T01:37:39;4.85;;;2.30;;
48487;SDS011;34289;48.572;13.378;2023-07-02T01:40:04;2.97;;;2.28;;
48487;SDS011;34289;48.572;13.378;2023-07-02T01:42:33;4.32;;;1.95;;
48487;SDS011;34289;48.572;13.378;2023-07-02T01:44:59;2.58;;;1.50;;
48487;SDS011;34289;48.572;13.378;2023-07-02T01:47:25;3.83;;;1.83;;
48487;SDS011;34289;48.572;13.378;2023-07-02T01:49:50;5.88;;;2.55;;
48487;SDS011;34289;48.572;13.378;2023-07-02T01:52:16;5.93;;;2.30;;
48487;SDS011;34289;48.572;13.378;2023-07-02T01:54:42;4.63;;;2.00;;
48487;SDS011;34289;48.572;13.378;2023-07-02T01:57:08;3.88;;;2.15;;
48487;SDS011;34289;48.572;13.378;2023-07-02T01:59:34;4.15;;;1.88;;
48487;SDS011;34289;48.572;13.378;2023-07-02T02:02:00;2.95;;;2.25;;
48487;SDS011;34289;48.572;13.378;2023-07-02T02:04:25;4.15;;;2.10;;
48487;SDS011;34289;48.572;13.378;2023-07-02T02:06:51;4.97;;;2.03;;
48487;SDS011;34289;48.572;13.378;2023-07-02T02:09:17;3.25;;;1.95;;
48487;SDS011;34289;48.572;13.378;2023-07-02T02:11:44;2.67;;;2.03;;
48487;SDS011;34289;48.572;13.378;2023-07-02T02:14:12;8.02;;;2.85;;
48487;SDS011;34289;48.572;13.378;2023-07-02T02:16:37;2.67;;;2.47;;
48487;SDS011;34289;48.572;13.378;2023-07-02T02:19:03;6.13;;;2.92;;
48487;SDS011;34289;48.572;13.378;2023-07-02T02:21:29;3.67;;;2.15;;
48487;SDS011;34289;48.572;13.378;2023-07-02T02:23:55;2.95;;;2.33;;
48487;SDS011;34289;48.572;13.378;2023-07-02T02:26:21;3.35;;;2.60;;
48487;SDS011;34289;48.572;13.378;2023-07-02T02:28:47;4.63;;;2.90;;
48487;SDS011;34289;48.572;13.378;2023-07-02T02:31:13;3.60;;;2.33;;
48487;SDS011;34289;48.572;13.378;2023-07-02T02:33:39;2.70;;;1.98;;
48487;SDS011;34289;48.572;13.378;2023-07-02T02:36:05;2.25;;;1.85;;
48487;SDS011;34289;48.572;13.378;2023-07-02T02:38:31;3.00;;;2.50;;
48487;SDS011;34289;48.572;13.378;2023-07-02T02:40:56;5.25;;;2.65;;
48487;SDS011;34289;48.572;13.378;2023-07-02T02:43:22;4.15;;;2.67;;
48487;SDS011;34289;48.572;13.378;2023-07-02T02:45:48;3.88;;;2.60;;
48487;SDS011;34289;48.572;13.378;2023-07-02T02:48:13;6.00;;;3.00;;
48487;SDS011;34289;48.572;13.378;2023-07-02T02:50:39;6.90;;;2.78;;
48487;SDS011;34289;48.572;13.378;2023-07-02T02:53:06;3.22;;;2.30;;
48487;SDS011;34289;48.572;13.378;2023-07-02T02:55:32;7.10;;;2.30;;
48487;SDS011;34289;48.572;13.378;2023-07-02T02:57:58;6.50;;;2.67;;
48487;SDS011;34289;48.572;13.378;2023-07-02T03:00:24;5.38;;;2.47;;
48487;SDS011;34289;48.572;13.378;2023-07-02T03:02:50;3.08;;;2.38;;
48487;SDS011;34289;48.572;13.378;2023-07-02T03:05:15;3.75;;;2.45;;
48487;SDS011;34289;48.572;13.378;2023-07-02T03:07:41;4.45;;;2.13;;
48487;SDS011;34289;48.572;13.378;2023-07-02T03:10:07;5.30;;;2.70;;
48487;SDS011;34289;48.572;13.378;2023-07-02T03:12:33;4.80;;;2.58;;
48487;SDS011;34289;48.572;13.378;2023-07-02T03:14:58;4.15;;;2.60;;
48487;SDS011;34289;48.572;13.378;2023-07-02T03:17:24;4.53;;;2.50;;
48487;SDS011;34289;48.572;13.378;2023-07-02T03:19:50;3.28;;;2.38;;
48487;SDS011;34289;48.572;13.378;2023-07-02T03:22:15;9.38;;;3.00;;
48487;SDS011;34289;48.572;13.378;2023-07-02T03:24:41;4.30;;;2.70;;
48487;SDS011;34289;48.572;13.378;2023-07-02T03:27:07;6.95;;;2.83;;
48487;SDS011;34289;48.572;13.378;2023-07-02T03:29:35;3.50;;;2.85;;
48487;SDS011;34289;48.572;13.378;2023-07-02T03:32:03;4.57;;;2.60;;
48487;SDS011;34289;48.572;13.378;2023-07-02T03:34:29;5.78;;;3.03;;
48487;SDS011;34289;48.572;13.378;2023-07-02T03:36:54;3.72;;;2.75;;
48487;SDS011;34289;48.572;13.378;2023-07-02T03:39:20;8.45;;;2.58;;
48487;SDS011;34289;48.572;13.378;2023-07-02T03:41:46;4.88;;;2.60;;
48487;SDS011;34289;48.572;13.378;2023-07-02T03:44:12;4.22;;;2.75;;
48487;SDS011;34289;48.572;13.378;2023-07-02T03:46:37;2.65;;;2.30;;
48487;SDS011;34289;48.572;13.378;2023-07-02T03:49:03;5.20;;;2.90;;
48487;SDS011;34289;48.572;13.378;2023-07-02T03:51:29;3.58;;;2.60;;
48487;SDS011;34289;48.572;13.378;2023-07-02T03:53:55;5.25;;;2.95;;
48487;SDS011;34289;48.572;13.378;2023-07-02T03:56:21;3.55;;;2.33;;
48487;SDS011;34289;48.572;13.378;2023-07-02T03:58:46;5.78;;;2.42;;
48487;SDS011;34289;48.572;13.378;2023-07-02T04:01:12;4.75;;;2.78;;
48487;SDS011;34289;48.572;13.378;2023-07-02T04:03:38;5.60;;;2.33;;
48487;SDS011;34289;48.572;13.378;2023-07-02T04:06:04;4.97;;;2.53;;
48487;SDS011;34289;48.572;13.378;2023-07-02T04:08:32;4.25;;;2.45;;
48487;SDS011;34289;48.572;13.378;2023-07-02T04:10:59;6.07;;;2.80;;
48487;SDS011;34289;48.572;13.378;2023-07-02T04:13:24;4.00;;;2.58;;
48487;SDS011;34289;48.572;13.378;2023-07-02T04:15:50;3.65;;;2.75;;
48487;SDS011;34289;48.572;13.378;2023-07-02T04:18:16;5.88;;;2.72;;
48487;SDS011;34289;48.572;13.378;2023-07-02T04:20:41;5.97;;;3.50;;
48487;SDS011;34289;48.572;13.378;2023-07-02T04:23:07;3.05;;;2.47;;
48487;SDS011;34289;48.572;13.378;2023-07-02T04:25:33;3.38;;;2.45;;
48487;SDS011;34289;48.572;13.378;2023-07-02T04:27:59;11.60;;;2.78;;
48487;SDS011;34289;48.572;13.378;2023-07-02T04:30:24;4.20;;;2.58;;
48487;SDS011;34289;48.572;13.378;2023-07-02T04:32:51;5.75;;;2.97;;
48487;SDS011;34289;48.572;13.378;2023-07-02T04:35:17;7.72;;;3.10;;
48487;SDS011;34289;48.572;13.378;2023-07-02T04:37:43;3.40;;;2.60;;
48487;SDS011;34289;48.572;13.378;2023-07-02T04:40:09;4.40;;;2.60;;
48487;SDS011;34289;48.572;13.378;2023-07-02T04:42:38;4.63;;;2.55;;
48487;SDS011;34289;48.572;13.378;2023-07-02T04:45:05;3.53;;;2.40;;
48487;SDS011;34289;48.572;13.378;2023-07-02T04:47:31;4.03;;;2.53;;
48487;SDS011;34289;48.572;13.378;2023-07-02T04:49:58;3.65;;;2.47;;
48487;SDS011;34289;48.572;13.378;2023-07-02T04:52:24;3.40;;;2.50;;
48487;SDS011;34289;48.572;13.378;2023-07-02T04:54:49;2.75;;;2.50;;
48487;SDS011;34289;48.572;13.378;2023-07-02T04:57:15;3.67;;;2.42;;
48487;SDS011;34289;48.572;13.378;2023-07-02T04:59:41;3.08;;;2.60;;
48487;SDS011;34289;48.572;13.378;2023-07-02T05:02:07;3.10;;;2.42;;
48487;SDS011;34289;48.572;13.378;2023-07-02T05:04:33;3.30;;;2.70;;
48487;SDS011;34289;48.572;13.378;2023-07-02T05:07:02;3.28;;;2.80;;
48487;SDS011;34289;48.572;13.378;2023-07-02T05:09:28;2.47;;;2.08;;
48487;SDS011;34289;48.572;13.378;2023-07-02T05:11:53;3.25;;;2.38;;
48487;SDS011;34289;48.572;13.378;2023-07-02T05:14:19;4.90;;;2.50;;
48487;SDS011;34289;48.572;13.378;2023-07-02T05:16:45;4.03;;;2.72;;
48487;SDS011;34289;48.572;13.378;2023-07-02T05:19:10;3.70;;;2.65;;
48487;SDS011;34289;48.572;13.378;2023-07-02T05:21:36;4.15;;;2.30;;
48487;SDS011;34289;48.572;13.378;2023-07-02T05:24:01;4.32;;;2.83;;
48487;SDS011;34289;48.572;13.378;2023-07-02T05:26:27;4.93;;;2.05;;
48487;SDS011;34289;48.572;13.378;2023-07-02T05:28:53;2.92;;;2.00;;
48487;SDS011;34289;48.572;13.378;2023-07-02T05:31:18;4.15;;;2.22;;
48487;SDS011;34289;48.572;13.378;2023-07-02T05:33:44;2.78;;;2.10;;
48487;SDS011;34289;48.572;13.378;2023-07-02T05:36:10;3.35;;;2.28;;
48487;SDS011;34289;48.572;13.378;2023-07-02T05:38:36;4.10;;;2.78;;
48487;SDS011;34289;48.572;13.378;2023-07-02T05:41:04;3.22;;;2.25;;
48487;SDS011;34289;48.572;13.378;2023-07-02T05:43:30;4.25;;;3.00;;
48487;SDS011;34289;48.572;13.378;2023-07-02T05:45:57;4.20;;;1.85;;
48487;SDS011;34289;48.572;13.378;2023-07-02T05:48:25;4.57;;;2.15;;
48487;SDS011;34289;48.572;13.378;2023-07-02T05:50:51;3.25;;;2.17;;
48487;SDS011;34289;48.572;13.378;2023-07-02T05:53:17;7.57;;;2.33;;
48487;SDS011;34289;48.572;13.378;2023-07-02T05:55:43;5.95;;;2.60;;
48487;SDS011;34289;48.572;13.378;2023-07-02T05:58:09;3.38;;;2.22;;
48487;SDS011;34289;48.572;13.378;2023-07-02T06:00:35;2.58;;;2.10;;
48487;SDS011;34289;48.572;13.378;2023-07-02T06:03:00;3.58;;;2.10;;
48487;SDS011;34289;48.572;13.378;2023-07-02T06:05:26;4.13;;;2.13;;
48487;SDS011;34289;48.572;13.378;2023-07-02T06:07:52;4.43;;;2.40;;
48487;SDS011;34289;48.572;13.378;2023-07-02T06:10:17;4.60;;;2.15;;
48487;SDS011;34289;48.572;13.378;2023-07-02T06:12:43;5.40;;;1.90;;
48487;SDS011;34289;48.572;13.378;2023-07-02T06:15:09;4.90;;;2.10;;
48487;SDS011;34289;48.572;13.378;2023-07-02T06:17:35;3.80;;;2.20;;
48487;SDS011;34289;48.572;13.378;2023-07-02T06:20:04;4.78;;;2.30;;
48487;SDS011;34289;48.572;13.378;2023-07-02T06:22:30;3.72;;;1.98;;
48487;SDS011;34289;48.572;13.378;2023-07-02T06:24:56;4.80;;;2.03;;
48487;SDS011;34289;48.572;13.378;2023-07-02T06:27:21;4.82;;;2.22;;
48487;SDS011;34289;48.572;13.378;2023-07-02T06:29:47;1.98;;;1.42;;
48487;SDS011;34289;48.572;13.378;2023-07-02T06:32:13;2.90;;;1.85;;
48487;SDS011;34289;48.572;13.378;2023-07-02T06:34:38;2.95;;;2.10;;
48487;SDS011;34289;48.572;13.378;2023-07-02T06:37:04;4.45;;;1.73;;
48487;SDS011;34289;48.572;13.378;2023-07-02T06:39:30;4.00;;;2.25;;
48487;SDS011;34289;48.572;13.378;2023-07-02T06:41:56;4.03;;;1.77;;
48487;SDS011;34289;48.572;13.378;2023-07-02T06:44:21;6.10;;;2.13;;
48487;SDS011;34289;48.572;13.378;2023-07-02T06:46:47;4.05;;;1.70;;
48487;SDS011;34289;48.572;13.378;2023-07-02T06:49:13;4.13;;;1.95;;
48487;SDS011;34289;48.572;13.378;2023-07-02T06:51:38;3.83;;;2.40;;
48487;SDS011;34289;48.572;13.378;2023-07-02T06:54:04;4.63;;;1.58;;
48487;SDS011;34289;48.572;13.378;2023-07-02T06:56:30;2.28;;;1.67;;
48487;SDS011;34289;48.572;13.378;2023-07-02T06:58:57;4.07;;;2.00;;
48487;SDS011;34289;48.572;13.378;2023-07-02T07:01:23;3.03;;;1.67;;
48487;SDS011;34289;48.572;13.378;2023-07-02T07:03:48;3.22;;;1.80;;
48487;SDS011;34289;48.572;13.378;2023-07-02T07:06:14;2.42;;;1.98;;
48487;SDS011;34289;48.572;13.378;2023-07-02T07:08:40;3.85;;;1.92;;
48487;SDS011;34289;48.572;13.378;2023-07-02T07:11:06;3.83;;;1.80;;
48487;SDS011;34289;48.572;13.378;2023-07-02T07:13:31;7.47;;;2.10;;
48487;SDS011;34289;48.572;13.378;2023-07-02T07:15:57;2.50;;;1.60;;
48487;SDS011;34289;48.572;13.378;2023-07-02T07:18:22;5.05;;;2.25;;
48487;SDS011;34289;48.572;13.378;2023-07-02T07:20:48;4.70;;;2.10;;
48487;SDS011;34289;48.572;13.378;2023-07-02T07:23:14;2.45;;;1.73;;
48487;SDS011;34289;48.572;13.378;2023-07-02T07:25:42;2.45;;;1.77;;
48487;SDS011;34289;48.572;13.378;2023-07-02T07:28:08;2.72;;;1.13;;
48487;SDS011;34289;48.572;13.378;2023-07-02T07:30:39;2.55;;;1.75;;
48487;SDS011;34289;48.572;13.378;2023-07-02T07:33:05;3.67;;;1.48;;
48487;SDS011;34289;48.572;13.378;2023-07-02T07:35:30;2.90;;;1.65;;
48487;SDS011;34289;48.572;13.378;2023-07-02T07:37:56;2.70;;;1.40;;
48487;SDS011;34289;48.572;13.378;2023-07-02T07:40:21;5.35;;;1.60;;
48487;SDS011;34289;48.572;13.378;2023-07-02T07:42:47;4.75;;;1.65;;
48487;SDS011;34289;48.572;13.378;2023-07-02T07:45:12;4.78;;;1.55;;
48487;SDS011;34289;48.572;13.378;2023-07-02T07:47:38;2.22;;;1.50;;
48487;SDS011;34289;48.572;13.378;2023-07-02T07:50:04;2.95;;;1.40;;
48487;SDS011;34289;48.572;13.378;2023-07-02T07:52:36;5.55;;;1.70;;
48487;SDS011;34289;48.572;13.378;2023-07-02T07:55:02;2.25;;;1.65;;
48487;SDS011;34289;48.572;13.378;2023-07-02T07:57:28;2.60;;;1.60;;
48487;SDS011;34289;48.572;13.378;2023-07-02T07:59:54;4.53;;;1.98;;
48487;SDS011;34289;48.572;13.378;2023-07-02T08:02:19;1.98;;;1.27;;
48487;SDS011;34289;48.572;13.378;2023-07-02T08:04:47;4.45;;;1.95;;
48487;SDS011;34289;48.572;13.378;2023-07-02T08:07:13;4.78;;;1.85;;
48487;SDS011;34289;48.572;13.378;2023-07-02T08:09:39;2.70;;;1.90;;
48487;SDS011;34289;48.572;13.378;2023-07-02T08:12:05;3.63;;;1.83;;
48487;SDS011;34289;48.572;13.378;2023-07-02T08:14:32;3.63;;;1.52;;
48487;SDS011;34289;48.572;13.378;2023-07-02T08:17:00;3.40;;;1.85;;
48487;SDS011;34289;48.572;13.378;2023-07-02T08:19:25;3.90;;;2.03;;
48487;SDS011;34289;48.572;13.378;2023-07-02T08:21:51;2.45;;;1.50;;
48487;SDS011;34289;48.572;13.378;2023-07-02T08:24:17;2.97;;;1.70;;
48487;SDS011;34289;48.572;13.378;2023-07-02T08:26:43;5.82;;;1.90;;
48487;SDS011;34289;48.572;13.378;2023-07-02T08:29:09;4.43;;;2.25;;
48487;SDS011;34289;48.572;13.378;2023-07-02T08:31:35;4.45;;;1.90;;
48487;SDS011;34289;48.572;13.378;2023-07-02T08:34:01;3.53;;;2.08;;
48487;SDS011;34289;48.572;13.378;2023-07-02T08:36:27;4.38;;;2.17;;
48487;SDS011;34289;48.572;13.378;2023-07-02T08:38:53;5.03;;;2.20;;
48487;SDS011;34289;48.572;13.378;2023-07-02T08:41:20;6.38;;;3.10;;
48487;SDS011;34289;48.572;13.378;2023-07-02T08:43:46;3.47;;;2.00;;
48487;SDS011;34289;48.572;13.378;2023-07-02T08:46:14;3.45;;;2.20;;
48487;SDS011;34289;48.572;13.378;2023-07-02T08:48:41;7.03;;;3.22;;
48487;SDS011;34289;48.572;13.378;2023-07-02T08:51:07;8.13;;;3.10;;
48487;SDS011;34289;48.572;13.378;2023-07-02T08:53:32;6.95;;;3.08;;
48487;SDS011;34289;48.572;13.378;2023-07-02T08:56:02;4.78;;;2.90;;
48487;SDS011;34289;48.572;13.378;2023-07-02T08:58:28;6.75;;;3.13;;
48487;SDS011;34289;48.572;13.378;2023-07-02T09:01:07;4.53;;;2.83;;
48487;SDS011;34289;48.572;13.378;2023-07-02T09:03:34;7.93;;;3.83;;
48487;SDS011;34289;48.572;13.378;2023-07-02T09:06:02;7.30;;;3.40;;
48487;SDS011;34289;48.572;13.378;2023-07-02T09:08:29;6.30;;;3.33;;
48487;SDS011;34289;48.572;13.378;2023-07-02T09:11:05;7.32;;;3.25;;
48487;SDS011;34289;48.572;13.378;2023-07-02T09:13:30;7.93;;;3.00;;
48487;SDS011;34289;48.572;13.378;2023-07-02T09:15:56;8.38;;;3.35;;
48487;SDS011;34289;48.572;13.378;2023-07-02T09:18:22;7.47;;;3.03;;
48487;SDS011;34289;48.572;13.378;2023-07-02T09:20:52;8.55;;;3.40;;
48487;SDS011;34289;48.572;13.378;2023-07-02T09:23:19;8.82;;;3.50;;
48487;SDS011;34289;48.572;13.378;2023-07-02T09:25:45;7.05;;;3.60;;
48487;SDS011;34289;48.572;13.378;2023-07-02T09:28:17;7.65;;;3.53;;
48487;SDS011;34289;48.572;13.378;2023-07-02T09:30:54;9.27;;;4.15;;
48487;SDS011;34289;48.572;13.378;2023-07-02T09:33:23;6.20;;;3.55;;
48487;SDS011;34289;48.572;13.378;2023-07-02T09:35:52;8.55;;;3.60;;
48487;SDS011;34289;48.572;13.378;2023-07-02T09:38:21;6.25;;;3.35;;
48487;SDS011;34289;48.572;13.378;2023-07-02T09:40:49;7.18;;;3.63;;
48487;SDS011;34289;48.572;13.378;2023-07-02T09:43:16;6.00;;;2.90;;
48487;SDS011;34289;48.572;13.378;2023-07-02T09:45:46;7.07;;;3.55;;
48487;SDS011;34289;48.572;13.378;2023-07-02T09:48:16;5.90;;;3.40;;
48487;SDS011;34289;48.572;13.378;2023-07-02T09:50:43;6.43;;;3.20;;
48487;SDS011;34289;48.572;13.378;2023-07-02T09:53:10;12.13;;;4.13;;
48487;SDS011;34289;48.572;13.378;2023-07-02T09:55:39;8.20;;;3.45;;
48487;SDS011;34289;48.572;13.378;2023-07-02T09:58:06;8.93;;;3.75;;
48487;SDS011;34289;48.572;13.378;2023-07-02T10:00:33;6.00;;;3.58;;
48487;SDS011;34289;48.572;13.378;2023-07-02T10:02:59;5.82;;;2.88;;
48487;SDS011;34289;48.572;13.378;2023-07-02T10:05:29;4.18;;;2.80;;
48487;SDS011;34289;48.572;13.378;2023-07-02T10:07:56;5.90;;;3.15;;
48487;SDS011;34289;48.572;13.378;2023-07-02T10:10:40;3.72;;;2.60;;
48487;SDS011;34289;48.572;13.378;2023-07-02T10:13:06;5.03;;;2.55;;
48487;SDS011;34289;48.572;13.378;2023-07-02T10:15:32;9.93;;;2.58;;
48487;SDS011;34289;48.572;13.378;2023-07-02T10:18:02;5.72;;;2.40;;
48487;SDS011;34289;48.572;13.378;2023-07-02T10:20:36;4.75;;;2.95;;
48487;SDS011;34289;48.572;13.378;2023-07-02T10:23:05;5.32;;;3.08;;
48487;SDS011;34289;48.572;13.378;2023-07-02T10:25:35;4.78;;;2.90;;
48487;SDS011;34289;48.572;13.378;2023-07-02T10:30:39;6.85;;;3.35;;
48487;SDS011;34289;48.572;13.378;2023-07-02T10:33:42;6.03;;;3.03;;
48487;SDS011;34289;48.572;13.378;2023-07-02T10:35:57;9.27;;;3.53;;
48487;SDS011;34289;48.572;13.378;2023-07-02T10:38:23;5.07;;;3.38;;
48487;SDS011;34289;48.572;13.378;2023-07-02T10:40:56;6.68;;;3.28;;
48487;SDS011;34289;48.572;13.378;2023-07-02T10:43:26;11.30;;;3.83;;
48487;SDS011;34289;48.572;13.378;2023-07-02T10:45:53;7.03;;;3.47;;
48487;SDS011;34289;48.572;13.378;2023-07-02T10:48:19;6.63;;;3.10;;
48487;SDS011;34289;48.572;13.378;2023-07-02T10:50:44;7.53;;;3.40;;
48487;SDS011;34289;48.572;13.378;2023-07-02T10:53:16;4.43;;;2.47;;
48487;SDS011;34289;48.572;13.378;2023-07-02T10:55:43;8.38;;;3.60;;
48487;SDS011;34289;48.572;13.378;2023-07-02T10:58:10;8.77;;;3.85;;
48487;SDS011;34289;48.572;13.378;2023-07-02T11:00:46;4.57;;;2.92;;
48487;SDS011;34289;48.572;13.378;2023-07-02T11:03:23;5.38;;;2.92;;
48487;SDS011;34289;48.572;13.378;2023-07-02T11:05:50;6.53;;;3.15;;
48487;SDS011;34289;48.572;13.378;2023-07-02T11:08:16;5.57;;;2.83;;
48487;SDS011;34289;48.572;13.378;2023-07-02T11:10:42;4.63;;;2.47;;
48487;SDS011;34289;48.572;13.378;2023-07-02T11:13:12;5.22;;;3.03;;
48487;SDS011;34289;48.572;13.378;2023-07-02T11:15:39;11.07;;;3.88;;
48487;SDS011;34289;48.572;13.378;2023-07-02T11:18:08;5.60;;;2.60;;
48487;SDS011;34289;48.572;13.378;2023-07-02T11:20:45;8.40;;;4.15;;
48487;SDS011;34289;48.572;13.378;2023-07-02T11:25:53;7.10;;;2.95;;
48487;SDS011;34289;48.572;13.378;2023-07-02T11:28:23;7.25;;;3.75;;
48487;SDS011;34289;48.572;13.378;2023-07-02T11:30:49;7.63;;;3.33;;
48487;SDS011;34289;48.572;13.378;2023-07-02T11:33:15;7.10;;;3.38;;
48487;SDS011;34289;48.572;13.378;2023-07-02T11:35:40;5.53;;;3.45;;
48487;SDS011;34289;48.572;13.378;2023-07-02T11:38:08;7.07;;;3.85;;
48487;SDS011;34289;48.572;13.378;2023-07-02T11:40:35;6.68;;;3.17;;
48487;SDS011;34289;48.572;13.378;2023-07-02T11:43:01;6.03;;;3.72;;
48487;SDS011;34289;48.572;13.378;2023-07-02T11:45:27;5.32;;;2.83;;
48487;SDS011;34289;48.572;13.378;2023-07-02T11:47:53;6.28;;;3.42;;
48487;SDS011;34289;48.572;13.378;2023-07-02T11:50:19;8.18;;;4.03;;
48487;SDS011;34289;48.572;13.378;2023-07-02T11:52:45;9.27;;;4.15;;
48487;SDS011;34289;48.572;13.378;2023-07-02T11:55:11;6.60;;;3.50;;
48487;SDS011;34289;48.572;13.378;2023-07-02T11:57:37;8.05;;;4.32;;
48487;SDS011;34289;48.572;13.378;2023-07-02T12:00:03;6.05;;;4.25;;
48487;SDS011;34289;48.572;13.378;2023-07-02T12:02:29;8.50;;;4.07;;
48487;SDS011;34289;48.572;13.378;2023-07-02T12:04:55;6.88;;;4.22;;
48487;SDS011;34289;48.572;13.378;2023-07-02T12:07:20;10.85;;;4.78;;
48487;SDS011;34289;48.572;13.378;2023-07-02T12:09:46;8.00;;;4.60;;
48487;SDS011;34289;48.572;13.378;2023-07-02T12:12:13;9.88;;;4.00;;
48487;SDS011;34289;48.572;13.378;2023-07-02T12:14:39;10.95;;;4.38;;
48487;SDS011;34289;48.572;13.378;2023-07-02T12:17:08;7.50;;;3.95;;
48487;SDS011;34289;48.572;13.378;2023-07-02T12:19:37;7.00;;;4.18;;
48487;SDS011;34289;48.572;13.378;2023-07-02T12:22:04;9.25;;;4.75;;
48487;SDS011;34289;48.572;13.378;2023-07-02T12:24:29;6.95;;;3.88;;
48487;SDS011;34289;48.572;13.378;2023-07-02T12:26:55;9.13;;;4.00;;
48487;SDS011;34289;48.572;13.378;2023-07-02T12:29:20;6.13;;;4.00;;
48487;SDS011;34289;48.572;13.378;2023-07-02T12:31:46;7.13;;;3.97;;
48487;SDS011;34289;48.572;13.378;2023-07-02T12:34:11;7.85;;;3.92;;
48487;SDS011;34289;48.572;13.378;2023-07-02T12:36:37;6.70;;;4.22;;
48487;SDS011;34289;48.572;13.378;2023-07-02T12:39:03;11.07;;;5.03;;
48487;SDS011;34289;48.572;13.378;2023-07-02T12:41:28;9.57;;;4.75;;
48487;SDS011;34289;48.572;13.378;2023-07-02T12:43:55;7.07;;;4.32;;
48487;SDS011;34289;48.572;13.378;2023-07-02T12:46:21;8.45;;;4.88;;
48487;SDS011;34289;48.572;13.378;2023-07-02T12:48:47;10.07;;;4.82;;
48487;SDS011;34289;48.572;13.378;2023-07-02T12:51:12;8.27;;;3.92;;
48487;SDS011;34289;48.572;13.378;2023-07-02T12:53:38;5.50;;;3.88;;
48487;SDS011;34289;48.572;13.378;2023-07-02T12:56:03;7.82;;;3.95;;
48487;SDS011;34289;48.572;13.378;2023-07-02T12:58:29;8.80;;;4.50;;
48487;SDS011;34289;48.572;13.378;2023-07-02T13:00:55;7.15;;;4.50;;
48487;SDS011;34289;48.572;13.378;2023-07-02T13:03:21;8.32;;;4.70;;
48487;SDS011;34289;48.572;13.378;2023-07-02T13:05:48;8.23;;;4.53;;
48487;SDS011;34289;48.572;13.378;2023-07-02T13:08:14;10.75;;;5.25;;
48487;SDS011;34289;48.572;13.378;2023-07-02T13:10:40;6.47;;;4.10;;
48487;SDS011;34289;48.572;13.378;2023-07-02T13:13:05;17.83;;;4.97;;
48487;SDS011;34289;48.572;13.378;2023-07-02T13:15:31;9.77;;;5.75;;
48487;SDS011;34289;48.572;13.378;2023-07-02T13:17:57;12.13;;;5.03;;
48487;SDS011;34289;48.572;13.378;2023-07-02T13:20:23;9.82;;;4.93;;
48487;SDS011;34289;48.572;13.378;2023-07-02T13:22:49;11.68;;;4.75;;
48487;SDS011;34289;48.572;13.378;2023-07-02T13:25:14;9.20;;;4.53;;
48487;SDS011;34289;48.572;13.378;2023-07-02T13:27:40;10.30;;;4.85;;
48487;SDS011;34289;48.572;13.378;2023-07-02T13:30:06;9.77;;;4.38;;
48487;SDS011;34289;48.572;13.378;2023-07-02T13:32:32;9.23;;;5.18;;
48487;SDS011;34289;48.572;13.378;2023-07-02T13:34:57;9.02;;;4.82;;
48487;SDS011;34289;48.572;13.378;2023-07-02T13:37:23;8.27;;;4.53;;
48487;SDS011;34289;48.572;13.378;2023-07-02T13:39:49;9.15;;;4.55;;
48487;SDS011;34289;48.572;13.378;2023-07-02T13:42:15;14.65;;;4.88;;
48487;SDS011;34289;48.572;13.378;2023-07-02T13:44:41;8.15;;;4.78;;
48487;SDS011;34289;48.572;13.378;2023-07-02T13:47:06;7.07;;;3.60;;
48487;SDS011;34289;48.572;13.378;2023-07-02T13:49:32;7.95;;;4.57;;
48487;SDS011;34289;48.572;13.378;2023-07-02T13:51:58;11.30;;;4.25;;
48487;SDS011;34289;48.572;13.378;2023-07-02T13:54:24;9.73;;;4.15;;
48487;SDS011;34289;48.572;13.378;2023-07-02T13:56:50;7.32;;;4.25;;
48487;SDS011;34289;48.572;13.378;2023-07-02T13:59:16;9.05;;;4.30;;
48487;SDS011;34289;48.572;13.378;2023-07-02T14:01:42;5.65;;;4.20;;
48487;SDS011;34289;48.572;13.378;2023-07-02T14:04:09;9.40;;;4.53;;
48487;SDS011;34289;48.572;13.378;2023-07-02T14:06:35;7.32;;;4.75;;
48487;SDS011;34289;48.572;13.378;2023-07-02T14:09:01;10.75;;;4.18;;
48487;SDS011;34289;48.572;13.378;2023-07-02T14:11:27;10.85;;;5.10;;
48487;SDS011;34289;48.572;13.378;2023-07-02T14:13:53;7.28;;;4.55;;
48487;SDS011;34289;48.572;13.378;2023-07-02T14:16:19;8.95;;;4.25;;
48487;SDS011;34289;48.572;13.378;2023-07-02T14:18:46;9.80;;;5.95;;
48487;SDS011;34289;48.572;13.378;2023-07-02T14:21:12;9.05;;;5.63;;
48487;SDS011;34289;48.572;13.378;2023-07-02T14:23:39;9.25;;;4.70;;
48487;SDS011;34289;48.572;13.378;2023-07-02T14:26:04;11.13;;;5.55;;
48487;SDS011;34289;48.572;13.378;2023-07-02T14:28:30;8.88;;;4.57;;
48487;SDS011;34289;48.572;13.378;2023-07-02T14:30:57;7.80;;;4.22;;
48487;SDS011;34289;48.572;13.378;2023-07-02T14:33:25;9.85;;;4.18;;
48487;SDS011;34289;48.572;13.378;2023-07-02T14:35:51;7.47;;;4.18;;